Time;durP1;ratioP1;P1;durP2;ratioP2;P2;SDS_P1;SDS_P2;PMS_P1;PMS_P2;Temp;Humidity;BMP_temperature;BMP_pressure;BME280_temperature;BME280_humidity;BME280_pressure;Samples;Min_cycle;Max_cycle;Signal;HPM_P1;HPM_P2
2022/07/04 00:01:04;;;;;;;1.80;1.60;;;21.90;73.00;;;;;;6231954;23;20012;-68
2022/07/04 00:03:30;;;;;;;2.03;1.60;;;21.90;73.20;;;;;;6241563;23;20019;-68
2022/07/04 00:05:55;;;;;;;3.50;1.30;;;21.80;73.40;;;;;;6242401;23;20019;-67
2022/07/04 00:08:21;;;;;;;1.98;1.35;;;21.80;73.50;;;;;;6231768;23;20111;-67
2022/07/04 00:10:47;;;;;;;1.88;1.70;;;21.70;73.70;;;;;;6240616;23;20012;-67
2022/07/04 00:13:13;;;;;;;1.50;1.40;;;21.60;74.10;;;;;;6241390;23;20015;-68
2022/07/04 00:15:39;;;;;;;2.65;1.90;;;21.40;74.20;;;;;;6241081;23;20004;-66
2022/07/04 00:18:05;;;;;;;2.40;1.65;;;21.40;75.10;;;;;;6230543;23;20016;-68
2022/07/04 00:20:30;;;;;;;5.68;1.67;;;21.40;75.90;;;;;;6231086;23;20011;-67
2022/07/04 00:22:56;;;;;;;2.30;1.60;;;21.30;76.00;;;;;;6230633;23;20016;-67
2022/07/04 00:25:22;;;;;;;4.15;1.95;;;21.20;76.30;;;;;;6230588;23;20011;-67
2022/07/04 00:27:47;;;;;;;2.55;1.77;;;21.10;76.80;;;;;;6231114;23;20660;-67
2022/07/04 00:30:13;;;;;;;3.08;1.70;;;21.00;77.10;;;;;;6203120;23;20004;-67
2022/07/04 00:32:39;;;;;;;6.15;1.92;;;21.00;77.30;;;;;;6230994;23;20015;-67
2022/07/04 00:35:05;;;;;;;2.97;2.22;;;20.90;78.00;;;;;;6241688;23;20007;-67
2022/07/04 00:37:31;;;;;;;1.90;1.70;;;20.90;78.10;;;;;;6241812;23;20019;-67
2022/07/04 00:39:57;;;;;;;1.77;1.67;;;20.80;78.50;;;;;;6228523;23;20004;-67
2022/07/04 00:42:22;;;;;;;5.28;1.90;;;20.80;78.90;;;;;;6229682;23;20097;-67
2022/07/04 00:44:48;;;;;;;2.22;2.00;;;20.70;79.30;;;;;;6230086;23;20038;-67
2022/07/04 00:47:14;;;;;;;2.47;2.25;;;20.70;80.00;;;;;;6229909;23;20012;-67
2022/07/04 00:49:40;;;;;;;3.55;2.22;;;20.70;80.80;;;;;;6230110;23;20015;-67
2022/07/04 00:52:06;;;;;;;2.80;2.17;;;20.60;80.70;;;;;;6230324;23;20047;-67
2022/07/04 00:54:32;;;;;;;2.78;2.58;;;20.60;81.10;;;;;;6229764;23;20028;-67
2022/07/04 00:56:59;;;;;;;2.30;2.10;;;20.50;81.30;;;;;;6229823;23;20075;-67
2022/07/04 00:59:26;;;;;;;2.15;1.95;;;20.50;81.40;;;;;;6230028;23;20472;-67
2022/07/04 01:01:52;;;;;;;2.60;2.30;;;20.50;81.50;;;;;;6230540;23;20551;-67
2022/07/04 01:04:18;;;;;;;4.40;2.70;;;20.50;82.10;;;;;;6229878;23;20008;-67
2022/07/04 01:06:44;;;;;;;2.80;2.50;;;20.40;82.90;;;;;;6230299;23;20107;-67
2022/07/04 01:09:11;;;;;;;4.25;2.80;;;20.40;83.30;;;;;;6240041;23;20012;-68
2022/07/04 01:11:37;;;;;;;3.22;2.90;;;20.40;83.60;;;;;;6240111;23;20012;-67
2022/07/04 01:14:05;;;;;;;4.30;2.90;;;20.40;84.00;;;;;;6228008;23;20120;-68
2022/07/04 01:16:31;;;;;;;5.75;3.08;;;20.40;84.50;;;;;;6230871;23;20012;-68
2022/07/04 01:18:56;;;;;;;3.30;3.00;;;20.40;84.90;;;;;;6239647;23;20512;-67
2022/07/04 01:21:22;;;;;;;4.75;3.63;;;20.40;85.10;;;;;;6230344;23;20354;-68
2022/07/04 01:23:48;;;;;;;4.35;3.83;;;20.40;85.60;;;;;;6230249;23;20065;-67
2022/07/04 01:26:14;;;;;;;3.58;3.22;;;20.40;85.40;;;;;;6230161;23;20015;-67
2022/07/04 01:28:40;;;;;;;3.83;3.50;;;20.40;85.70;;;;;;6229855;23;20015;-67
2022/07/04 01:31:06;;;;;;;5.40;3.50;;;20.30;85.80;;;;;;6230618;23;20008;-67
2022/07/04 01:33:32;;;;;;;3.50;3.20;;;20.30;86.10;;;;;;6240418;23;20011;-67
2022/07/04 01:35:59;;;;;;;4.53;3.58;;;20.30;86.40;;;;;;6240824;23;20094;-68
2022/07/04 01:38:25;;;;;;;3.97;3.58;;;20.30;86.50;;;;;;6240134;23;20008;-67
2022/07/04 01:40:51;;;;;;;4.43;3.70;;;20.30;86.50;;;;;;6230419;23;20019;-68
2022/07/04 01:43:17;;;;;;;3.40;3.10;;;20.30;86.60;;;;;;6231150;23;20015;-67
2022/07/04 01:45:43;;;;;;;3.83;3.53;;;20.30;86.60;;;;;;6241537;23;20012;-67
2022/07/04 01:48:11;;;;;;;3.78;3.47;;;20.30;86.80;;;;;;6230287;23;20740;-67
2022/07/04 01:50:38;;;;;;;3.97;3.58;;;20.30;86.90;;;;;;6230950;23;20004;-67
2022/07/04 01:53:04;;;;;;;4.07;3.63;;;20.30;86.90;;;;;;6203028;23;20011;-67
2022/07/04 01:55:31;;;;;;;4.07;3.67;;;20.20;87.10;;;;;;6241156;23;20012;-67
2022/07/04 01:57:57;;;;;;;4.40;3.85;;;20.20;87.20;;;;;;6230820;23;20107;-67
2022/07/04 02:03:08;;;;;;;7.22;4.95;;;20.20;87.40;;;;;;6231065;23;20016;-67
2022/07/04 02:05:34;;;;;;;4.68;3.83;;;20.20;87.50;;;;;;6230900;23;20004;-67
2022/07/04 02:08:00;;;;;;;4.30;3.90;;;20.20;87.50;;;;;;6204067;23;20015;-67
2022/07/04 02:10:26;;;;;;;4.57;3.80;;;20.10;87.50;;;;;;6230445;23;20042;-68
2022/07/04 02:13:01;;;;;;;6.05;3.53;;;20.10;87.50;;;;;;6240425;23;20354;-67
2022/07/04 02:15:35;;;;;;;4.22;3.63;;;20.00;87.70;;;;;;6240956;23;20552;-67
2022/07/04 02:18:02;;;;;;;4.47;3.70;;;20.00;87.90;;;;;;6230760;23;20103;-68
2022/07/04 02:20:28;;;;;;;4.03;3.63;;;20.00;87.90;;;;;;6231142;23;20008;-68
2022/07/04 02:22:55;;;;;;;3.92;3.53;;;20.00;88.10;;;;;;6231324;23;20064;-67
2022/07/04 02:25:21;;;;;;;5.68;3.70;;;19.90;88.30;;;;;;6241324;23;20473;-67
2022/07/04 02:27:50;;;;;;;4.10;3.72;;;19.90;88.50;;;;;;6231676;23;20016;-67
2022/07/04 02:30:18;;;;;;;5.60;4.50;;;19.90;88.50;;;;;;6231160;23;20136;-67
2022/07/04 02:32:44;;;;;;;6.43;4.53;;;19.80;88.70;;;;;;6230295;23;20058;-67
2022/07/04 02:35:10;;;;;;;3.70;3.40;;;19.80;88.80;;;;;;6228449;23;20004;-67
2022/07/04 02:37:36;;;;;;;4.32;3.60;;;19.70;88.70;;;;;;6241042;23;20011;-67
2022/07/04 02:40:04;;;;;;;4.20;3.80;;;19.70;88.50;;;;;;6240303;23;20106;-67
2022/07/04 02:42:34;;;;;;;3.85;3.55;;;19.60;88.50;;;;;;6230210;23;20900;-67
2022/07/04 02:45:00;;;;;;;4.57;4.18;;;19.60;89.00;;;;;;6229845;23;20606;-67
2022/07/04 02:47:26;;;;;;;6.82;3.42;;;19.50;89.10;;;;;;6230824;23;20007;-67
2022/07/04 02:49:53;;;;;;;3.60;3.30;;;19.40;89.20;;;;;;6231036;23;20111;-67
2022/07/04 02:52:18;;;;;;;8.07;4.28;;;19.40;89.10;;;;;;6241040;23;20054;-67
2022/07/04 02:54:45;;;;;;;5.70;5.10;;;19.40;89.90;;;;;;6241516;23;20097;-67
2022/07/04 02:57:11;;;;;;;4.40;3.88;;;19.40;90.20;;;;;;6232091;23;20019;-67
2022/07/04 02:59:37;;;;;;;5.57;3.65;;;19.30;90.10;;;;;;6231686;23;20012;-67
2022/07/04 03:02:03;;;;;;;4.47;3.50;;;19.30;90.10;;;;;;6241925;23;20015;-67
2022/07/04 03:04:28;;;;;;;4.18;3.78;;;19.30;90.20;;;;;;6232694;23;20004;-67
2022/07/04 03:06:54;;;;;;;4.57;3.65;;;19.30;90.20;;;;;;6232806;23;20087;-67
2022/07/04 03:09:20;;;;;;;5.90;4.32;;;19.20;90.30;;;;;;6241990;23;20008;-68
2022/07/04 03:11:46;;;;;;;4.03;3.72;;;19.20;90.40;;;;;;6231977;23;20095;-67
2022/07/04 03:14:11;;;;;;;5.35;4.60;;;19.20;90.40;;;;;;6242371;23;20028;-67
2022/07/04 03:16:37;;;;;;;4.35;3.88;;;19.20;90.50;;;;;;6242414;23;20745;-67
2022/07/04 03:19:03;;;;;;;4.97;4.00;;;19.20;90.40;;;;;;6231934;23;20015;-67
2022/07/04 03:21:29;;;;;;;4.00;3.45;;;19.10;90.50;;;;;;6242971;23;20008;-67
2022/07/04 03:23:58;;;;;;;4.47;4.07;;;19.10;90.40;;;;;;6231160;23;20004;-67
2022/07/04 03:26:25;;;;;;;3.70;3.40;;;19.00;90.50;;;;;;6241690;23;20012;-67
2022/07/04 03:28:51;;;;;;;5.78;3.97;;;19.00;90.50;;;;;;6231614;23;20012;-67
2022/07/04 03:31:17;;;;;;;4.53;3.83;;;19.00;90.60;;;;;;6231202;23;20012;-67
2022/07/04 03:33:42;;;;;;;4.45;3.25;;;19.00;90.50;;;;;;6231603;23;20488;-68
2022/07/04 03:36:08;;;;;;;4.13;3.72;;;19.00;90.50;;;;;;6231713;23;20000;-67
2022/07/04 03:38:34;;;;;;;4.05;3.72;;;19.00;90.50;;;;;;6241444;23;20505;-67
2022/07/04 03:41:00;;;;;;;4.13;3.70;;;18.90;90.50;;;;;;6232413;23;20493;-67
2022/07/04 03:43:25;;;;;;;4.45;3.95;;;18.90;90.60;;;;;;6231806;23;20012;-67
2022/07/04 03:45:51;;;;;;;4.10;3.70;;;18.90;90.70;;;;;;6241655;23;20090;-67
2022/07/04 03:48:17;;;;;;;4.47;4.07;;;18.90;90.80;;;;;;6242147;23;20008;-68
2022/07/04 03:50:43;;;;;;;5.88;4.22;;;18.90;90.90;;;;;;6232672;23;20016;-68
2022/07/04 03:53:08;;;;;;;4.18;3.80;;;18.90;91.10;;;;;;6231433;23;20106;-67
2022/07/04 03:55:34;;;;;;;5.22;3.95;;;18.90;91.10;;;;;;6232455;23;20004;-67
2022/07/04 03:58:01;;;;;;;3.90;3.50;;;18.90;91.50;;;;;;6230808;23;20016;-67
2022/07/04 04:00:26;;;;;;;3.50;3.20;;;19.00;91.10;;;;;;6241994;23;20091;-68
2022/07/04 04:02:52;;;;;;;4.35;3.92;;;19.00;91.10;;;;;;6232014;23;20557;-67
2022/07/04 04:05:27;;;;;;;3.97;3.50;;;19.00;91.00;;;;;;6241761;23;20062;-68
2022/07/04 04:08:02;;;;;;;3.63;3.33;;;19.00;91.00;;;;;;6241050;23;20012;-67
2022/07/04 04:10:31;;;;;;;3.40;3.10;;;19.00;91.10;;;;;;6230995;23;20008;-68
2022/07/04 04:12:58;;;;;;;3.60;3.20;;;19.00;90.90;;;;;;6240256;23;20399;-67
2022/07/04 04:15:23;;;;;;;3.58;3.17;;;19.00;90.90;;;;;;6231030;23;20473;-67
2022/07/04 04:17:49;;;;;;;3.45;3.00;;;19.10;90.90;;;;;;6231132;23;20008;-67
2022/07/04 04:20:15;;;;;;;3.78;3.00;;;19.10;90.60;;;;;;6230215;23;20465;-67
2022/07/04 04:22:41;;;;;;;4.00;2.85;;;19.10;90.50;;;;;;6230061;23;20012;-67
2022/07/04 04:25:07;;;;;;;2.95;2.60;;;19.20;90.50;;;;;;6240592;23;20027;-67
2022/07/04 04:27:33;;;;;;;3.50;3.20;;;19.20;90.40;;;;;;6230592;23;20508;-67
2022/07/04 04:29:59;;;;;;;4.10;2.60;;;19.20;90.40;;;;;;6229970;23;20008;-68
2022/07/04 04:32:24;;;;;;;3.30;2.92;;;19.20;90.30;;;;;;6231211;23;20334;-68
2022/07/04 04:34:50;;;;;;;3.28;2.70;;;19.30;90.30;;;;;;6230356;23;20004;-67
2022/07/04 04:37:16;;;;;;;3.17;2.45;;;19.20;90.20;;;;;;6230650;23;20012;-67
2022/07/04 04:39:41;;;;;;;4.95;2.72;;;19.30;90.20;;;;;;6231028;23;20008;-68
2022/07/04 04:42:07;;;;;;;4.60;2.63;;;19.30;90.30;;;;;;6231565;23;20087;-67
2022/07/04 04:44:33;;;;;;;3.70;2.60;;;19.30;90.20;;;;;;6241246;23;19996;-67
2022/07/04 04:46:59;;;;;;;3.70;2.63;;;19.30;90.10;;;;;;6230853;23;20150;-67
2022/07/04 04:49:24;;;;;;;3.15;2.45;;;19.30;90.10;;;;;;6231257;23;20015;-66
2022/07/04 04:51:50;;;;;;;7.00;2.65;;;19.40;90.20;;;;;;6230982;23;20445;-67
2022/07/04 04:54:16;;;;;;;3.05;2.45;;;19.40;90.20;;;;;;6230769;23;20089;-67
2022/07/04 04:56:42;;;;;;;3.25;2.60;;;19.50;90.00;;;;;;6240910;23;20003;-67
2022/07/04 04:59:08;;;;;;;2.75;2.38;;;19.60;89.70;;;;;;6229600;23;20019;-67
2022/07/04 05:01:34;;;;;;;4.30;2.70;;;19.70;89.00;;;;;;6241432;23;20015;-67
2022/07/04 05:04:00;;;;;;;2.70;2.20;;;19.70;88.40;;;;;;6231096;23;20019;-67
2022/07/04 05:06:26;;;;;;;2.40;2.20;;;19.70;87.50;;;;;;6231019;23;20012;-67
2022/07/04 05:08:52;;;;;;;2.67;2.00;;;19.70;87.10;;;;;;6239607;23;20065;-67
2022/07/04 05:11:18;;;;;;;2.55;2.30;;;19.70;87.10;;;;;;6230661;23;20731;-68
2022/07/04 05:13:43;;;;;;;2.63;1.95;;;19.70;86.90;;;;;;6240377;23;20000;-67
2022/07/04 05:16:09;;;;;;;3.83;2.00;;;19.80;86.60;;;;;;6230802;23;20339;-67
2022/07/04 05:18:35;;;;;;;2.40;1.70;;;19.70;86.70;;;;;;6230083;23;20042;-68
2022/07/04 05:21:01;;;;;;;3.05;1.88;;;19.80;86.20;;;;;;6230484;23;20035;-68
2022/07/04 05:23:27;;;;;;;2.17;1.98;;;19.80;85.30;;;;;;6230039;23;20012;-68
2022/07/04 05:25:52;;;;;;;1.80;1.60;;;19.90;85.70;;;;;;6241273;23;20054;-68
2022/07/04 05:28:18;;;;;;;3.25;1.70;;;19.90;84.30;;;;;;6240996;23;20011;-68
2022/07/04 05:30:44;;;;;;;2.65;1.60;;;20.00;83.80;;;;;;6230797;23;20008;-70
2022/07/04 05:33:11;;;;;;;1.70;1.35;;;20.10;83.00;;;;;;6231582;23;20046;-67
2022/07/04 05:35:37;;;;;;;2.97;1.45;;;20.20;82.40;;;;;;6241163;23;20090;-67
2022/07/04 05:38:03;;;;;;;1.90;1.48;;;20.20;81.20;;;;;;6230428;23;20046;-67
2022/07/04 05:40:29;;;;;;;1.40;1.30;;;20.20;81.20;;;;;;6231253;23;20020;-67
2022/07/04 05:42:56;;;;;;;1.45;1.25;;;20.20;80.70;;;;;;6231707;23;20012;-67
2022/07/04 05:45:22;;;;;;;6.25;1.70;;;20.30;80.20;;;;;;6231066;23;20338;-68
2022/07/04 05:47:48;;;;;;;2.08;1.33;;;20.30;80.30;;;;;;6231253;23;20473;-68
2022/07/04 05:50:14;;;;;;;1.75;1.23;;;20.30;80.20;;;;;;6231032;23;20012;-68
2022/07/04 05:52:40;;;;;;;1.95;1.33;;;20.30;80.50;;;;;;6230979;23;20106;-67
2022/07/04 05:55:07;;;;;;;1.67;1.40;;;20.30;80.40;;;;;;6231244;23;20008;-67
2022/07/04 05:57:33;;;;;;;2.33;1.60;;;20.40;79.00;;;;;;6241225;23;20012;-67
2022/07/04 05:59:59;;;;;;;6.40;1.33;;;20.40;78.90;;;;;;6230763;23;20008;-68
2022/07/04 06:02:25;;;;;;;2.95;1.52;;;20.40;79.50;;;;;;6230824;23;20000;-67
2022/07/04 06:04:50;;;;;;;3.85;1.65;;;20.40;78.50;;;;;;6231276;23;20004;-67
2022/07/04 06:07:17;;;;;;;4.13;1.55;;;20.50;78.70;;;;;;6230534;23;20087;-67
2022/07/04 06:09:43;;;;;;;1.80;1.17;;;20.50;78.40;;;;;;6241301;23;20000;-67
2022/07/04 06:12:09;;;;;;;5.35;1.50;;;20.60;78.20;;;;;;6231169;23;20008;-67
2022/07/04 06:14:35;;;;;;;2.25;1.10;;;20.70;77.00;;;;;;6240771;23;20008;-67
2022/07/04 06:17:02;;;;;;;1.98;1.00;;;20.70;77.00;;;;;;6231380;23;20012;-67
2022/07/04 06:19:27;;;;;;;4.03;1.30;;;20.90;76.40;;;;;;6227958;23;20004;-68
2022/07/04 06:21:53;;;;;;;2.22;1.35;;;20.90;77.10;;;;;;6230115;23;20004;-67
2022/07/04 06:24:19;;;;;;;2.35;1.10;;;20.90;76.50;;;;;;6232369;23;20107;-67
2022/07/04 06:26:45;;;;;;;3.05;1.80;;;21.00;76.30;;;;;;6232595;23;20012;-68
2022/07/04 06:29:10;;;;;;;2.22;2.00;;;21.10;76.20;;;;;;6204101;23;20746;-67
2022/07/04 06:31:36;;;;;;;5.68;1.88;;;21.10;76.10;;;;;;6232113;23;20012;-67
2022/07/04 06:36:46;;;;;;;2.30;1.60;;;21.30;75.90;;;;;;6231568;23;20079;-67
2022/07/04 06:39:12;;;;;;;3.58;1.50;;;21.30;76.10;;;;;;6231263;23;20835;-68
2022/07/04 06:41:38;;;;;;;2.00;1.80;;;21.30;76.40;;;;;;6231402;23;20011;-67
2022/07/04 06:44:04;;;;;;;5.78;2.22;;;21.40;76.10;;;;;;6204365;23;20039;-67
2022/07/04 06:46:30;;;;;;;2.42;1.48;;;21.40;75.40;;;;;;6231387;23;20819;-68
2022/07/04 06:48:56;;;;;;;1.73;1.40;;;21.50;75.30;;;;;;6230689;23;20012;-67
2022/07/04 06:51:23;;;;;;;4.00;1.70;;;21.50;75.20;;;;;;6231639;23;20020;-67
2022/07/04 06:53:49;;;;;;;3.85;1.50;;;21.60;74.80;;;;;;6242167;23;20072;-68
2022/07/04 06:56:14;;;;;;;2.33;1.35;;;21.70;74.10;;;;;;6231883;23;20111;-67
2022/07/04 06:58:40;;;;;;;3.45;1.40;;;21.70;73.40;;;;;;6231629;23;20040;-68
2022/07/04 07:01:06;;;;;;;2.10;1.20;;;21.80;73.40;;;;;;6232543;23;20036;-67
2022/07/04 07:03:32;;;;;;;1.20;1.00;;;21.90;73.00;;;;;;6233266;23;20419;-67
2022/07/04 07:05:58;;;;;;;1.90;1.05;;;21.90;72.30;;;;;;6242437;23;20040;-68
2022/07/04 07:08:24;;;;;;;6.18;0.98;;;22.10;71.60;;;;;;6232459;23;20019;-67
2022/07/04 07:10:49;;;;;;;1.25;1.02;;;22.20;71.00;;;;;;6242661;23;20008;-67
2022/07/04 07:13:15;;;;;;;4.38;0.90;;;22.40;70.70;;;;;;6242310;23;20004;-68
2022/07/04 07:15:41;;;;;;;0.93;0.60;;;22.60;69.00;;;;;;6230447;23;20633;-67
2022/07/04 07:18:07;;;;;;;1.95;1.40;;;22.70;69.10;;;;;;6231266;23;20019;-68
2022/07/04 07:20:33;;;;;;;2.50;1.27;;;22.70;69.70;;;;;;6230079;23;20008;-68
2022/07/04 07:23:01;;;;;;;2.83;1.10;;;22.70;69.50;;;;;;6231646;23;20709;-68
2022/07/04 07:25:27;;;;;;;1.33;1.00;;;22.70;68.10;;;;;;6242263;23;20008;-68
2022/07/04 07:27:53;;;;;;;2.97;1.00;;;22.70;67.90;;;;;;6230741;23;20008;-68
2022/07/04 07:30:18;;;;;;;1.92;0.80;;;22.70;68.30;;;;;;6232203;23;20022;-68
2022/07/04 07:32:44;;;;;;;3.13;1.13;;;22.70;68.60;;;;;;6242780;23;20357;-65
2022/07/04 07:35:11;;;;;;;1.27;0.70;;;22.80;68.20;;;;;;6231550;23;20055;-73
2022/07/04 07:37:37;;;;;;;0.88;0.82;;;22.70;67.20;;;;;;6232215;23;20434;-78
2022/07/04 07:40:03;;;;;;;1.10;0.75;;;22.60;68.10;;;;;;6241952;23;20062;-74
2022/07/04 07:42:29;;;;;;;13.60;8.45;;;22.60;67.70;;;;;;6231946;23;20012;-74
2022/07/04 07:44:56;;;;;;;5.93;3.90;;;22.60;67.90;;;;;;6232178;23;20095;-75
2022/07/04 07:47:21;;;;;;;2.78;1.10;;;22.60;68.50;;;;;;6232215;23;20688;-72
2022/07/04 07:49:47;;;;;;;2.03;0.88;;;22.70;67.80;;;;;;6240401;23;20065;-73
2022/07/04 07:52:14;;;;;;;4.22;0.95;;;22.60;67.90;;;;;;6231504;23;20059;-72
2022/07/04 07:54:40;;;;;;;2.70;1.05;;;22.70;68.30;;;;;;6231238;23;20716;-75
2022/07/04 07:57:06;;;;;;;6.10;1.17;;;22.60;68.00;;;;;;6229244;23;20008;-72
2022/07/04 07:59:32;;;;;;;3.17;1.20;;;22.70;67.90;;;;;;6230508;23;20142;-74
2022/07/04 08:01:57;;;;;;;2.45;1.05;;;22.90;67.30;;;;;;6230217;23;20035;-75
2022/07/04 08:04:35;;;;;;;7.57;1.67;;;23.00;69.20;;;;;;6228287;23;20012;-75
2022/07/04 08:07:05;;;;;;;4.95;1.45;;;23.20;67.20;;;;;;6230109;23;20095;-74
2022/07/04 08:09:32;;;;;;;3.78;2.20;;;23.20;65.90;;;;;;6202891;23;20542;-71
2022/07/04 08:11:58;;;;;;;2.70;1.08;;;23.20;65.50;;;;;;6229161;23;20004;-76
2022/07/04 08:14:24;;;;;;;1.67;0.80;;;23.20;65.30;;;;;;6230098;23;20012;-76
2022/07/04 08:16:50;;;;;;;2.00;0.68;;;23.40;64.70;;;;;;6239929;23;20004;-76
2022/07/04 08:19:16;;;;;;;1.70;0.80;;;23.40;63.00;;;;;;6229150;23;20099;-77
2022/07/04 08:21:42;;;;;;;2.08;0.88;;;23.40;63.40;;;;;;6240725;23;20012;-76
2022/07/04 08:24:08;;;;;;;1.23;0.63;;;23.50;64.10;;;;;;6230293;23;20598;-77
2022/07/04 08:26:33;;;;;;;1.35;0.50;;;23.50;63.80;;;;;;6229714;23;20030;-75
2022/07/04 08:28:59;;;;;;;4.50;0.80;;;23.50;61.90;;;;;;6229051;23;20119;-75
2022/07/04 08:31:27;;;;;;;1.58;0.57;;;23.50;60.80;;;;;;6240714;23;20011;-74
2022/07/04 08:33:52;;;;;;;1.85;0.82;;;23.50;62.90;;;;;;6239794;23;20086;-78
2022/07/04 08:36:18;;;;;;;2.53;0.70;;;23.60;62.40;;;;;;6231232;23;20019;-78
2022/07/04 08:38:44;;;;;;;2.88;0.90;;;23.70;62.60;;;;;;6230208;23;20004;-79
2022/07/04 08:41:14;;;;;;;2.88;1.42;;;23.80;61.60;;;;;;6203701;23;20008;-78
2022/07/04 08:43:41;;;;;;;5.05;1.63;;;23.90;63.50;;;;;;6231038;23;20098;-78
2022/07/04 08:46:09;;;;;;;5.00;3.20;;;23.90;60.50;;;;;;6230558;23;20017;-75
2022/07/04 08:48:38;;;;;;;1.88;1.00;;;23.80;61.80;;;;;;6240084;23;20442;-77
2022/07/04 08:51:16;;;;;;;1.58;1.13;;;23.70;61.10;;;;;;6239709;23;20008;-79
2022/07/04 08:53:50;;;;;;;3.05;0.85;;;23.80;61.50;;;;;;6240314;23;20090;-76
2022/07/04 08:59:04;;;;;;;4.90;1.00;;;23.80;62.40;;;;;;6202494;23;20012;-77
2022/07/04 09:01:31;;;;;;;3.80;0.95;;;23.80;61.60;;;;;;6230477;23;20016;-78
2022/07/04 09:03:57;;;;;;;1.60;0.80;;;24.00;60.90;;;;;;6238868;23;20029;-78
2022/07/04 09:06:24;;;;;;;5.72;1.23;;;23.90;60.00;;;;;;6202782;23;20015;-77
2022/07/04 09:08:51;;;;;;;112.07;70.63;;;23.90;60.20;;;;;;6239590;23;20008;-78
2022/07/04 09:11:18;;;;;;;4.30;2.58;;;24.00;60.40;;;;;;6230195;23;20008;-67
2022/07/04 09:13:44;;;;;;;2.90;1.00;;;24.10;60.20;;;;;;6229634;23;20107;-66
2022/07/04 09:16:10;;;;;;;2.33;1.13;;;24.10;59.10;;;;;;6230934;23;20105;-68
2022/07/04 09:18:37;;;;;;;2.70;0.65;;;24.20;57.80;;;;;;6239523;23;20015;-67
2022/07/04 09:21:07;;;;;;;1.13;0.80;;;24.30;57.10;;;;;;6201761;23;20008;-67
2022/07/04 09:23:36;;;;;;;1.02;0.65;;;24.30;57.80;;;;;;6240511;23;20007;-69
2022/07/04 09:26:21;;;;;;;2.75;0.75;;;24.30;57.00;;;;;;6229367;23;20742;-66
2022/07/04 09:28:58;;;;;;;1.83;0.60;;;24.40;56.70;;;;;;6229087;23;20047;-71
2022/07/04 09:31:30;;;;;;;1.88;0.70;;;24.40;57.10;;;;;;6228003;23;20019;-72
2022/07/04 09:33:57;;;;;;;3.05;0.63;;;24.30;57.60;;;;;;6228608;23;20008;-71
2022/07/04 09:36:28;;;;;;;2.97;0.77;;;24.30;56.90;;;;;;6202518;23;20799;-72
2022/07/04 09:39:30;;;;;;;3.88;0.65;;;24.30;57.60;;;;;;6239592;23;20004;-73
2022/07/04 09:42:03;;;;;;;13.65;9.57;;;24.30;57.30;;;;;;6076503;23;20640;-74
2022/07/04 09:44:46;;;;;;;2.17;0.98;;;24.40;58.10;;;;;;6205155;23;20004;-71
2022/07/04 09:47:27;;;;;;;1.85;0.80;;;24.60;56.50;;;;;;6228159;23;20047;-73
2022/07/04 09:50:12;;;;;;;1.10;0.40;;;24.60;56.10;;;;;;6237217;23;20048;-72
2022/07/04 09:52:58;;;;;;;2.10;0.82;;;24.60;55.60;;;;;;6238720;23;20008;-74
2022/07/04 09:55:32;;;;;;;1.30;0.65;;;24.60;56.00;;;;;;6239365;23;20015;-72
2022/07/04 09:58:04;;;;;;;2.38;0.80;;;24.60;55.70;;;;;;6229733;23;20023;-71
2022/07/04 10:00:32;;;;;;;2.28;1.17;;;24.70;54.40;;;;;;6229856;23;20019;-72
2022/07/04 10:03:19;;;;;;;1.10;0.98;;;24.70;54.30;;;;;;6240560;23;20837;-72
2022/07/04 10:05:46;;;;;;;4.00;1.80;;;24.70;53.20;;;;;;6231185;23;20062;-73
2022/07/04 10:08:12;;;;;;;4.15;1.00;;;24.70;54.10;;;;;;6230414;23;20040;-73
2022/07/04 10:10:44;;;;;;;3.63;2.10;;;24.70;54.00;;;;;;6203855;23;20043;-72
2022/07/04 10:13:12;;;;;;;1.20;0.75;;;24.70;53.80;;;;;;6230633;23;20008;-72
2022/07/04 10:15:39;;;;;;;2.70;0.70;;;24.80;53.50;;;;;;6231068;23;20054;-71
2022/07/04 10:18:07;;;;;;;3.20;0.60;;;24.80;53.40;;;;;;6229549;23;20066;-73
2022/07/04 10:20:34;;;;;;;1.92;0.70;;;24.80;53.70;;;;;;6227215;23;20022;-73
2022/07/04 10:23:00;;;;;;;0.57;0.55;;;24.90;53.50;;;;;;6229247;23;20038;-73
2022/07/04 10:25:27;;;;;;;2.85;0.73;;;25.00;54.00;;;;;;6228034;23;20016;-73
2022/07/04 10:27:53;;;;;;;1.88;0.75;;;25.20;53.50;;;;;;6228292;23;20099;-72
2022/07/04 10:30:28;;;;;;;1.52;0.38;;;25.40;53.80;;;;;;6237119;23;20342;-71
2022/07/04 10:32:56;;;;;;;5.85;2.60;;;25.70;53.20;;;;;;6228047;23;20074;-71
2022/07/04 10:35:47;;;;;;;1.33;0.60;;;25.80;52.30;;;;;;6229975;23;20395;-72
2022/07/04 10:38:14;;;;;;;2.03;0.73;;;25.90;53.00;;;;;;6239916;23;20035;-72
2022/07/04 10:40:52;;;;;;;1.40;0.50;;;26.00;52.30;;;;;;6240360;23;20008;-72
2022/07/04 10:43:42;;;;;;;2.45;0.65;;;26.00;51.90;;;;;;6241191;23;20148;-71
2022/07/04 10:46:14;;;;;;;1.15;0.60;;;26.00;52.80;;;;;;6238403;23;20019;-70
2022/07/04 10:48:50;;;;;;;3.00;0.77;;;26.00;51.90;;;;;;6230430;23;20012;-70
2022/07/04 10:51:22;;;;;;;1.95;0.63;;;25.90;51.70;;;;;;6230988;23;20019;-70
2022/07/04 10:54:00;;;;;;;1.92;0.65;;;25.80;52.00;;;;;;6233814;23;20008;-71
2022/07/04 10:56:25;;;;;;;1.38;0.60;;;25.80;50.00;;;;;;6234066;23;20222;-71
2022/07/04 10:58:51;;;;;;;4.75;0.70;;;25.70;51.10;;;;;;6233532;23;20788;-73
2022/07/04 11:01:20;;;;;;;2.85;0.70;;;25.60;51.30;;;;;;6234621;23;20012;-71
2022/07/04 11:03:53;;;;;;;3.55;0.60;;;25.40;51.90;;;;;;6207487;23;20008;-70
2022/07/04 11:06:35;;;;;;;0.43;0.43;;;25.50;51.90;;;;;;6234776;23;20020;-72
2022/07/04 11:09:20;;;;;;;1.85;0.60;;;25.60;52.40;;;;;;6233315;23;20016;-71
2022/07/04 11:11:56;;;;;;;2.35;0.75;;;25.70;53.00;;;;;;6234909;23;20402;-70
2022/07/04 11:14:44;;;;;;;1.33;0.63;;;25.80;52.50;;;;;;6207676;23;20016;-71
2022/07/04 11:17:26;;;;;;;0.57;0.40;;;26.00;51.10;;;;;;6234033;23;20552;-71
2022/07/04 11:19:59;;;;;;;2.13;0.63;;;25.90;51.20;;;;;;6234040;23;20023;-73
2022/07/04 11:22:25;;;;;;;2.28;0.70;;;25.90;51.00;;;;;;6235036;23;20012;-71
2022/07/04 11:24:52;;;;;;;1.73;0.60;;;25.80;51.00;;;;;;6234418;23;20434;-71
2022/07/04 11:27:20;;;;;;;1.83;0.40;;;25.80;50.90;;;;;;6235199;23;20425;-73
2022/07/04 11:29:51;;;;;;;1.80;0.65;;;25.80;50.80;;;;;;6234490;23;20012;-71
2022/07/04 11:32:17;;;;;;;2.85;0.80;;;25.90;51.30;;;;;;6232848;23;20350;-72
2022/07/04 11:34:43;;;;;;;1.83;0.60;;;25.90;51.50;;;;;;6234529;23;20013;-73
2022/07/04 11:37:09;;;;;;;0.88;0.77;;;25.80;50.30;;;;;;6234428;23;20714;-72
2022/07/04 11:39:35;;;;;;;5.30;0.88;;;25.90;50.60;;;;;;6233509;23;20028;-73
2022/07/04 11:45:07;;;;;;;1.98;0.90;;;26.00;50.60;;;;;;6192999;23;20014;-73
2022/07/04 11:47:42;;;;;;;0.77;0.47;;;26.20;48.50;;;;;;6234176;23;20015;-72
2022/07/04 11:50:18;;;;;;;2.87;0.77;;;26.20;49.60;;;;;;6233958;23;20122;-71
2022/07/04 11:52:46;;;;;;;2.38;0.65;;;26.20;49.70;;;;;;6245025;23;20015;-71
2022/07/04 11:55:16;;;;;;;3.35;0.70;;;26.20;49.40;;;;;;6234067;23;20019;-71
2022/07/04 11:57:46;;;;;;;0.93;0.50;;;26.00;49.00;;;;;;6234648;23;20012;-72
2022/07/04 12:00:17;;;;;;;1.25;0.70;;;25.90;49.40;;;;;;6233312;23;20008;-70
2022/07/04 12:02:44;;;;;;;0.70;0.47;;;25.80;50.10;;;;;;6233796;23;20798;-72
2022/07/04 12:05:12;;;;;;;1.30;0.57;;;25.80;48.90;;;;;;6233092;23;20088;-71
2022/07/04 12:07:43;;;;;;;2.28;0.57;;;25.70;48.00;;;;;;6233697;23;20035;-73
2022/07/04 12:10:14;;;;;;;2.15;0.70;;;25.60;47.80;;;;;;6232522;23;20684;-72
2022/07/04 12:13:06;;;;;;;2.67;0.70;;;25.60;49.30;;;;;;6235070;23;20267;-69
2022/07/04 12:15:37;;;;;;;0.90;0.60;;;25.70;48.80;;;;;;6244649;23;20114;-72
2022/07/04 12:18:06;;;;;;;2.78;2.00;;;25.80;48.40;;;;;;6243643;23;20012;-71
2022/07/04 12:20:32;;;;;;;4.28;1.10;;;25.80;47.10;;;;;;6243284;23;20666;-72
2022/07/04 12:23:01;;;;;;;0.68;0.57;;;25.90;47.30;;;;;;6233636;23;20004;-71
2022/07/04 12:25:32;;;;;;;0.90;0.50;;;25.90;47.40;;;;;;6234051;23;20088;-71
2022/07/04 12:28:00;;;;;;;0.70;0.50;;;25.80;46.60;;;;;;6234086;23;20012;-71
2022/07/04 12:30:28;;;;;;;1.52;0.55;;;25.70;47.20;;;;;;6233560;23;20741;-71
2022/07/04 12:33:07;;;;;;;0.82;0.40;;;25.60;47.00;;;;;;6233818;23;20095;-71
2022/07/04 12:35:51;;;;;;;0.70;0.50;;;25.60;47.00;;;;;;6234767;23;20123;-74
2022/07/04 12:38:27;;;;;;;1.65;0.50;;;25.60;47.20;;;;;;6243695;23;20442;-72
2022/07/04 12:41:11;;;;;;;0.80;0.70;;;25.70;47.90;;;;;;6233355;23;20012;-71
2022/07/04 12:43:42;;;;;;;1.30;0.45;;;25.80;46.50;;;;;;6233111;23;20012;-72
2022/07/04 12:46:32;;;;;;;1.45;0.40;;;25.80;47.40;;;;;;6234025;23;20121;-72
2022/07/04 12:49:00;;;;;;;1.80;0.50;;;25.90;45.70;;;;;;6233626;23;20013;-73
2022/07/04 12:51:33;;;;;;;8.05;5.65;;;26.00;45.00;;;;;;6244053;23;20099;-73
2022/07/04 12:54:06;;;;;;;7.65;3.60;;;25.90;44.30;;;;;;6243688;23;20489;-73
2022/07/04 12:56:33;;;;;;;2.70;0.80;;;25.90;44.10;;;;;;6234146;23;20039;-72
2022/07/04 12:59:02;;;;;;;1.70;0.63;;;25.90;45.30;;;;;;6232737;23;20019;-74
2022/07/04 13:01:28;;;;;;;0.63;0.40;;;26.00;43.90;;;;;;6244116;23;20031;-74